ADDS METAR Data INFO
IDs: Format: Raw Decoded Include TAF

Data at: 2147 UTC 15 Dec 2017

KCYS 152053Z 28023G28KT 10SM CLR 11/M12 A2993 RMK AO2 PK WND 28032/2008 SLP121 T01111117 55016
KCYS 151953Z 28022G29KT 10SM CLR 11/M11 A2992 RMK AO2 PK WND 28036/1920 SLP117 T01061106
KCYS 151853Z 28023G34KT 10SM CLR 10/M09 A2993 RMK AO2 PK WND 29035/1816 SLP135 T01001094
KCYS 151753Z 28024G34KT 10SM CLR 08/M11 A2998 RMK AO2 PK WND 28037/1656 SLP164 T00781106 10078 20000 50004
KCYS 151653Z 28026G35KT 10SM CLR 06/M11 A3000 RMK AO2 PK WND 27038/1639 SLP178 T00561111
KCYS 151553Z 29023G34KT 10SM CLR 04/M12 A2998 RMK AO2 PK WND 28041/1531 SLP171 T00441117
KCYS 151453Z 29021G30KT 10SM CLR 03/M12 A2997 RMK AO2 PK WND 28032/1356 SLP170 T00281122 56014
KCYS 151353Z 28022G29KT 10SM CLR 02/M12 A2997 RMK AO2 PK WND 29030/1258 SLP180 T00171117
KCYS 151253Z 28022G28KT 10SM CLR 02/M12 A3000 RMK AO2 PK WND 28028/1250 SLP184 T00171117
KCYS 151153Z AUTO 28018KT 10SM CLR M01/M11 A3002 RMK AO2 PK WND 28031/1056 SLP194 70004 T10061111 10006 21061 57019
KCYS 151053Z AUTO 28020KT 10SM CLR M01/M11 A3003 RMK AO2 PK WND 28027/1041 SLP195 T10061111
KCYS 150953Z AUTO 29012KT 10SM CLR 00/M12 A3007 RMK AO2 SLP210 T00001117
KCYS 150853Z AUTO 29015KT 10SM CLR M02/M13 A3008 RMK AO2 SLP222 T10221128 56016
KCYS 150753Z AUTO 28015KT 10SM CLR M02/M12 A3009 RMK AO2 SLP228 T10221117
KCYS 150653Z AUTO 28010KT 10SM CLR M04/M12 A3011 RMK AO2 SLP240 T10441122 410111067
KCYS 150553Z AUTO 27012KT 10SM CLR M06/M13 A3014 RMK AO2 SLP259 T10611133 11033 21067 58007
KCYS 150453Z 23009KT 10SM CLR M06/M13 A3015 RMK AO2 SLP259 T10611128
KCYS 150353Z 27010KT 10SM CLR M04/M12 A3016 RMK AO2 SLP254 T10441117
KCYS 150253Z 30011KT 10SM CLR M04/M11 A3016 RMK AO2 SLP254 T10391106 58002
KCYS 150153Z 31008KT 10SM CLR M05/M09 A3017 RMK AO2 SLP259 T10501089
KCYS 150053Z 32012G17KT 10SM CLR M04/M09 A3018 RMK AO2 SLP258 T10391094
KCYS 142353Z 33014G20KT 10SM CLR M03/M09 A3017 RMK AO2 SLP259 60003 T10331089 11011 21039 58003
KCYS 142253Z 33016G28KT 10SM CLR M02/M09 A3018 RMK AO2 PK WND 33028/2250 SLP260 T10221089
KCYS 142153Z 36011KT 9SM BKN045 OVC055 M03/M06 A3018 RMK AO2 SNE50 SLP261 P0000 T10281056
KCYS 142053Z 34013KT 5SM -SN BR BKN039 OVC050 M03/M05 A3018 RMK AO2 SLP260 P0001 60003 T10281050 56006
KCYS 142027Z 34015KT 4SM -SN BR FEW033 BKN042 OVC050 M03/M06 A3019 RMK AO2 P0001 T10331056
KCYS 142009Z 34011G19KT 2SM -SN BR SCT012 BKN035 OVC060 M03/M05 A3019 RMK AO2 SFC VIS 6 P0001 T10331050
KCYS 142002Z 35012G19KT 1SM -SN BR BKN008 OVC033 M03/M04 A3018 RMK AO2 TWR VIS 2 P0001 T10331044 RVRNO
KCYS 141953Z 36014G17KT 1/4SM SN FZFG VV008 M04/M04 A3019 RMK AO2 SLP265 P0002 T10391044 RVRNO
KCYS 141942Z 36009KT 1/4SM +SN FZFG BKN008 OVC021 M04/M04 A3019 RMK AO2 P0001 T10391044 RVRNO
KCYS 141933Z 01008G17KT 1/2SM -SN FZFG FEW008 BKN014 OVC027 M04/M04 A3018 RMK AO2 TWR VIS 1 P0001 T10391044 RVRNO
KCYS 141924Z 36011KT 1/2SM SN FZFG BKN020 OVC029 M03/M05 A3018 RMK AO2 TWR VIS 1 P0000 T10331050 RVRNO
KCYS 141917Z 36010KT 1SM -SN BR SCT020 BKN026 OVC031 M03/M06 A3018 RMK AO2 P0000 T10331056 RVRNO
KCYS 141909Z 36014G17KT 1 3/4SM -SN BR FEW020 OVC030 M03/M06 A3018 RMK AO2 TWR VIS 2 P0000 T10331056
KCYS 141853Z 35013G17KT 6SM -SN BKN030 BKN035 OVC046 M02/M06 A3019 RMK AO2 PK WND 36027/1758 SLP259 P0000 T10221056
KCYS 141829Z 35013G21KT 3SM -SN BR OVC031 M03/M06 A3019 RMK AO2 PK WND 36027/1758 P0000 T10331056
KCYS 141816Z 34015G25KT 1 1/4SM -SN BR FEW016 SCT024 OVC032 M04/M06 A3020 RMK AO2 PK WND 36027/1758 P0000 T10391056
KCYS 141807Z 36015G27KT 1/2SM SN FZFG SCT015 BKN024 OVC031 M03/M05 A3020 RMK AO2 PK WND 36027/1758 TWR VIS 3/4 P0000 T10331050 RVRNO
KCYS 141753Z 35016G28KT 1/2SM SN FZFG SCT017 OVC031 M04/M05 A3020 RMK AO2 PK WND 35032/1730 TWR VIS 3/4 SLP267 P0000 60001 T10391050 11011 21039 51015 RVRNO
KCYS 141732Z 36020G32KT 1/2SM -SN FZFG SCT011 OVC028 M04/M06 A3020 RMK AO2 PK WND 35032/1730 TWR VIS 3/4 P0000 T10391056 RVRNO
KCYS 141722Z 36021G29KT 1 3/4SM -SN BR FEW013 OVC027 M03/M05 A3020 RMK AO2 PK WND 35029/1722 TWR VIS 2 P0000 T10331050
KCYS 141708Z 35016G21KT 3SM -SN BR FEW007 SCT014 OVC027 M03/M05 A3020 RMK AO2 SFC VIS 3 P0000 T10331050
KCYS 141700Z 34015G24KT 1 3/4SM -SN BR SCT009 BKN016 OVC026 M03/M05 A3020 RMK AO2 TWR VIS 2 P0000 T10331050
KCYS 141653Z 01013G22KT 1/2SM -SN BR FEW006 BKN013 OVC026 M03/M04 A3020 RMK AO2 PK WND 32028/1602 SFC VIS 3/4 SNB03 SLP264 P0001 T10331044 RVRNO
KCYS 141640Z 35012G25KT 3/4SM -SN BR FEW006 BKN013 OVC022 M03/M04 A3020 RMK AO2 PK WND 32028/1602 TWR VIS 2 SNB03 P0000 T10281044 RVRNO
KCYS 141620Z 35015G24KT 1 3/4SM -SN BR SCT014 BKN025 OVC039 M02/M04 A3019 RMK AO2 PK WND 32028/1602 TWR VIS 2 SNB03 P0000 T10221044
KCYS 141617Z 36012G24KT 2SM -SN BR FEW014 BKN027 OVC048 M02/M04 A3019 RMK AO2 PK WND 32028/1602 SNB03 P0000 T10221044
KCYS 141609Z 34016G28KT 1 3/4SM -SN SCT032 BKN040 OVC048 M02/M06 A3018 RMK AO2 PK WND 32028/1602 TWR VIS 2 VIS 1V4 SNB03 P0000 T10171056
KCYS 141553Z 33015G23KT 10SM SCT050 OVC060 M01/M06 A3017 RMK AO2 PK WND 32026/1522 SLP243 T10111061
KCYS 141453Z 30013G20KT 10SM OVC060 M02/M04 A3015 RMK AO2 PK WND 28028/1426 SLP226 T10171044 53002
KCYS 141353Z 30011KT 10SM OVC055 M02/M05 A3015 RMK AO2 SLP226 T10171050
KCYS 141253Z 29007KT 10SM BKN050 M02/M06 A3014 RMK AO2 SLP222 T10221056
KCYS 141153Z 32010KT 10SM FEW029 SCT046 M03/M06 A3014 RMK AO2 SLP223 60000 T10331056 11022 21039 58001
KCYS 141053Z 33008KT 10SM SCT038 BKN090 M03/M05 A3014 RMK AO2 SLP219 T10331050
KCYS 140953Z 33009KT 6SM BR FEW055 BKN075 OVC110 M03/M04 A3015 RMK AO2 SNB40E50 SLP219 P0000 T10331044